Time;durP1;ratioP1;P1;durP2;ratioP2;P2;SDS_P1;SDS_P2;PMS_P1;PMS_P2;Temp;Humidity;BMP_temperature;BMP_pressure;BME280_temperature;BME280_humidity;BME280_pressure;Samples;Min_cycle;Max_cycle;Signal;HPM_P1;HPM_P2
2021/04/14 00:02:19;;;;;;;2.40;1.07;;;20.40;42.00;;;;;;5007849;28;20433;-72
2021/04/14 00:04:46;;;;;;;3.30;0.90;;;20.50;42.10;;;;;;5004150;28;20465;-72
2021/04/14 00:07:12;;;;;;;1.70;1.00;;;20.50;42.10;;;;;;5007121;28;20435;-73
2021/04/14 00:09:38;;;;;;;5.95;1.20;;;20.50;42.10;;;;;;4985987;28;20413;-72
2021/04/14 00:12:05;;;;;;;3.50;1.00;;;20.50;41.90;;;;;;5008022;28;20429;-72
2021/04/14 00:14:32;;;;;;;3.70;1.50;;;20.50;42.00;;;;;;5007503;28;20795;-72
2021/04/14 00:16:58;;;;;;;3.70;1.40;;;20.50;42.00;;;;;;5002668;28;21053;-72
2021/04/14 00:19:24;;;;;;;1.48;0.80;;;20.50;42.10;;;;;;5014695;28;20501;-72
2021/04/14 00:21:51;;;;;;;2.50;1.00;;;20.40;41.80;;;;;;5018643;28;20789;-72
2021/04/14 00:24:18;;;;;;;1.83;1.10;;;20.40;42.00;;;;;;5004930;28;20440;-72
2021/04/14 00:26:44;;;;;;;2.90;1.20;;;20.40;42.00;;;;;;5000238;28;20427;-72
2021/04/14 00:29:10;;;;;;;3.63;1.40;;;20.40;42.00;;;;;;5011893;28;20431;-71
2021/04/14 00:31:37;;;;;;;3.00;1.00;;;20.40;42.00;;;;;;5003308;28;20540;-72
2021/04/14 00:34:05;;;;;;;4.03;1.20;;;20.40;42.20;;;;;;5007854;28;20430;-72
2021/04/14 00:36:31;;;;;;;4.35;1.27;;;20.30;42.10;;;;;;5011883;28;20417;-72
2021/04/14 00:38:58;;;;;;;5.18;1.30;;;20.30;42.10;;;;;;5008187;28;20429;-73
2021/04/14 00:41:24;;;;;;;2.30;0.98;;;20.30;42.20;;;;;;5005586;28;20421;-73
2021/04/14 00:43:50;;;;;;;3.27;0.90;;;20.30;42.10;;;;;;5004841;28;20413;-72
2021/04/14 00:46:16;;;;;;;1.70;1.10;;;20.30;42.20;;;;;;5000360;28;20530;-72
2021/04/14 00:48:42;;;;;;;2.15;1.00;;;20.30;42.20;;;;;;5007522;28;21562;-73
2021/04/14 00:51:10;;;;;;;1.42;1.00;;;20.30;41.90;;;;;;4986078;28;20411;-72
2021/04/14 00:53:36;;;;;;;1.90;0.80;;;20.30;42.00;;;;;;5001893;28;20778;-72
2021/04/14 00:56:03;;;;;;;3.10;1.50;;;20.30;42.30;;;;;;5013362;28;20433;-72
2021/04/14 00:58:30;;;;;;;2.08;0.90;;;20.30;41.70;;;;;;5007946;28;20469;-72
2021/04/14 01:00:56;;;;;;;2.80;1.02;;;20.40;41.70;;;;;;5006811;28;20425;-73
2021/04/14 01:03:24;;;;;;;4.28;1.50;;;20.40;41.70;;;;;;5007769;28;20550;-73
2021/04/14 01:05:51;;;;;;;2.70;1.60;;;20.50;41.50;;;;;;5003638;28;20408;-72
2021/04/14 01:08:17;;;;;;;5.28;1.20;;;20.50;41.50;;;;;;5006524;28;20414;-73
2021/04/14 01:10:43;;;;;;;5.82;1.35;;;20.50;41.40;;;;;;4998358;28;20509;-72
2021/04/14 01:13:11;;;;;;;1.50;1.10;;;20.50;41.30;;;;;;5019845;28;20432;-72
2021/04/14 01:15:38;;;;;;;4.45;1.10;;;20.50;41.20;;;;;;5009391;28;20988;-72
2021/04/14 01:18:05;;;;;;;3.72;1.40;;;20.50;41.30;;;;;;5006765;28;20411;-73
2021/04/14 01:20:31;;;;;;;4.30;1.10;;;20.50;41.50;;;;;;5001540;28;20427;-71
2021/04/14 01:22:58;;;;;;;3.90;1.40;;;20.50;41.40;;;;;;5010808;28;20418;-72
2021/04/14 01:25:26;;;;;;;2.17;1.02;;;20.40;41.40;;;;;;5007587;28;20461;-72
2021/04/14 01:27:52;;;;;;;3.00;1.40;;;20.40;41.40;;;;;;5005844;28;20431;-73
2021/04/14 01:30:22;;;;;;;2.67;1.00;;;20.40;41.50;;;;;;5007840;28;20918;-72
2021/04/14 01:32:48;;;;;;;3.70;1.00;;;20.40;41.50;;;;;;5004251;28;20459;-73
2021/04/14 01:35:14;;;;;;;1.77;0.90;;;20.40;41.60;;;;;;5023357;28;20422;-72
2021/04/14 01:37:40;;;;;;;1.40;0.90;;;20.30;41.50;;;;;;5030074;28;20419;-71
2021/04/14 01:40:08;;;;;;;1.70;1.10;;;20.30;41.50;;;;;;5026135;28;20417;-73
2021/04/14 01:42:34;;;;;;;3.58;1.45;;;20.30;41.60;;;;;;5005551;28;20415;-71
2021/04/14 01:45:01;;;;;;;4.50;1.30;;;20.30;41.60;;;;;;4994978;28;20419;-70
2021/04/14 01:47:27;;;;;;;3.60;1.27;;;20.30;41.50;;;;;;5002936;28;20409;-71
2021/04/14 01:49:53;;;;;;;1.67;1.00;;;20.30;41.50;;;;;;5006303;28;20411;-72
2021/04/14 01:52:19;;;;;;;3.67;1.17;;;20.30;41.50;;;;;;4997999;28;20450;-71
2021/04/14 01:54:45;;;;;;;2.85;0.88;;;20.30;41.60;;;;;;4996548;28;20428;-71
2021/04/14 01:57:12;;;;;;;2.10;0.80;;;20.30;41.40;;;;;;4996048;28;20447;-71
2021/04/14 01:59:39;;;;;;;1.77;1.00;;;20.30;41.50;;;;;;5012497;28;20421;-73
2021/04/14 02:02:05;;;;;;;2.70;1.20;;;20.40;41.60;;;;;;5009938;28;20419;-73
2021/04/14 02:04:31;;;;;;;3.00;0.90;;;20.40;41.50;;;;;;4988018;28;20435;-72
2021/04/14 02:06:57;;;;;;;1.40;0.98;;;20.30;41.20;;;;;;5002901;28;20426;-72
2021/04/14 02:09:23;;;;;;;3.67;1.10;;;20.30;41.20;;;;;;5008698;28;20935;-71
2021/04/14 02:11:50;;;;;;;5.63;1.38;;;20.30;42.10;;;;;;5005948;28;20430;-72
2021/04/14 02:14:16;;;;;;;3.37;1.00;;;20.30;41.20;;;;;;5003866;28;20419;-72
2021/04/14 02:16:43;;;;;;;2.10;0.80;;;20.30;41.40;;;;;;5006799;28;20419;-71
2021/04/14 02:19:09;;;;;;;2.70;1.10;;;20.30;41.40;;;;;;5006827;28;21390;-72
2021/04/14 02:21:35;;;;;;;2.70;1.67;;;20.30;41.40;;;;;;5007367;28;20428;-72
2021/04/14 02:24:01;;;;;;;3.30;1.20;;;20.30;41.50;;;;;;5003368;28;20777;-74
2021/04/14 02:26:28;;;;;;;3.90;0.90;;;20.20;41.40;;;;;;5007042;28;20433;-73
2021/04/14 02:28:54;;;;;;;1.42;1.02;;;20.20;41.40;;;;;;5005104;28;20848;-73
2021/04/14 02:31:29;;;;;;;2.90;0.90;;;20.20;41.30;;;;;;5003478;28;20419;-72
2021/04/14 02:33:56;;;;;;;3.72;1.25;;;20.20;41.40;;;;;;5007985;28;20418;-72
2021/04/14 02:36:23;;;;;;;4.00;1.10;;;20.20;41.50;;;;;;5005272;28;20421;-72
2021/04/14 02:38:49;;;;;;;2.67;1.13;;;20.20;41.50;;;;;;5003734;28;21070;-73
2021/04/14 02:41:15;;;;;;;2.03;1.10;;;20.20;41.30;;;;;;5007185;28;20949;-72
2021/04/14 02:43:41;;;;;;;3.42;1.00;;;20.20;41.20;;;;;;4996233;28;20478;-72
2021/04/14 02:46:07;;;;;;;2.38;1.25;;;20.20;41.20;;;;;;5013976;28;20410;-73
2021/04/14 02:48:34;;;;;;;2.28;0.90;;;20.20;41.20;;;;;;5024902;28;20419;-73
2021/04/14 02:51:00;;;;;;;2.13;1.00;;;20.20;41.10;;;;;;5033704;28;20401;-73
2021/04/14 02:53:26;;;;;;;3.13;1.35;;;20.30;41.20;;;;;;5021438;28;20412;-72
2021/04/14 02:55:53;;;;;;;2.88;1.00;;;20.30;41.20;;;;;;5010651;28;20417;-71
2021/04/14 02:58:19;;;;;;;3.38;1.10;;;20.30;41.30;;;;;;4998919;28;20760;-72
2021/04/14 03:00:45;;;;;;;2.95;1.10;;;20.30;41.20;;;;;;4989451;28;20946;-72
2021/04/14 03:03:11;;;;;;;2.53;0.95;;;20.30;41.00;;;;;;4994544;28;20795;-72
2021/04/14 03:05:38;;;;;;;3.17;0.90;;;20.30;41.00;;;;;;4998482;28;20428;-73
2021/04/14 03:08:05;;;;;;;3.08;1.10;;;20.30;41.10;;;;;;5007640;28;20407;-72
2021/04/14 03:10:31;;;;;;;2.55;1.10;;;20.30;41.00;;;;;;4992433;28;20421;-71
2021/04/14 03:12:58;;;;;;;1.30;0.80;;;20.40;40.90;;;;;;4994350;28;20407;-73
2021/04/14 03:15:25;;;;;;;3.20;1.00;;;20.40;40.80;;;;;;5007075;28;20415;-72
2021/04/14 03:17:51;;;;;;;1.50;1.05;;;20.50;40.70;;;;;;4982772;28;20460;-73
2021/04/14 03:20:18;;;;;;;2.30;0.80;;;20.50;40.50;;;;;;5014473;28;20429;-73
2021/04/14 03:22:44;;;;;;;5.10;1.10;;;20.60;40.50;;;;;;5009308;28;20424;-73
2021/04/14 03:25:12;;;;;;;2.30;1.17;;;20.60;40.40;;;;;;5008170;28;20480;-72
2021/04/14 03:27:38;;;;;;;1.17;0.90;;;20.60;40.40;;;;;;5016164;28;20555;-72
2021/04/14 03:30:05;;;;;;;3.65;1.20;;;20.60;40.40;;;;;;5008081;28;20419;-72
2021/04/14 03:32:31;;;;;;;2.22;0.98;;;20.60;40.40;;;;;;5003595;28;20423;-72
2021/04/14 03:34:57;;;;;;;2.50;1.10;;;20.60;40.30;;;;;;5020154;28;20427;-71
2021/04/14 03:37:23;;;;;;;4.13;1.20;;;20.60;40.20;;;;;;5009550;28;20463;-72
2021/04/14 03:39:50;;;;;;;4.90;1.70;;;20.60;40.30;;;;;;5009800;28;20532;-73
2021/04/14 03:42:17;;;;;;;1.90;0.95;;;20.50;40.10;;;;;;5004220;28;20994;-73
2021/04/14 03:44:46;;;;;;;1.40;1.00;;;20.50;40.10;;;;;;5009464;28;20492;-71
2021/04/14 03:47:12;;;;;;;1.67;1.10;;;20.50;40.00;;;;;;5011194;28;20445;-71
2021/04/14 03:49:38;;;;;;;3.30;1.40;;;20.50;40.10;;;;;;5008324;28;20421;-71
2021/04/14 03:52:04;;;;;;;3.40;1.10;;;20.50;40.10;;;;;;5008363;28;20766;-70
2021/04/14 03:54:30;;;;;;;2.38;1.00;;;20.50;40.10;;;;;;5013757;28;20421;-72
2021/04/14 03:56:57;;;;;;;2.08;1.05;;;20.50;40.10;;;;;;5009190;28;20418;-71
2021/04/14 03:59:23;;;;;;;2.00;0.82;;;20.50;40.10;;;;;;5008375;28;20421;-71
2021/04/14 04:01:50;;;;;;;2.00;0.90;;;20.50;40.10;;;;;;5001721;28;20445;-73
2021/04/14 04:04:16;;;;;;;3.00;1.30;;;20.50;40.10;;;;;;5003125;28;20407;-72
2021/04/14 04:06:42;;;;;;;1.63;1.00;;;20.50;40.10;;;;;;5002305;28;20411;-72
2021/04/14 04:09:08;;;;;;;3.50;1.08;;;20.40;40.10;;;;;;5007933;28;20440;-72
2021/04/14 04:11:34;;;;;;;2.30;1.00;;;20.50;40.20;;;;;;4997579;28;20403;-71
2021/04/14 04:14:01;;;;;;;2.05;1.20;;;20.50;40.10;;;;;;5013723;28;20422;-72
2021/04/14 04:16:27;;;;;;;2.40;0.90;;;20.50;40.00;;;;;;5006554;28;20421;-72
2021/04/14 04:18:55;;;;;;;1.38;1.10;;;20.50;39.90;;;;;;5007796;28;20977;-73
2021/04/14 04:21:21;;;;;;;2.13;1.00;;;20.50;39.70;;;;;;5003230;28;20423;-71
2021/04/14 04:23:47;;;;;;;1.45;0.90;;;20.50;39.90;;;;;;4993806;28;20425;-72
2021/04/14 04:26:13;;;;;;;3.80;1.20;;;20.50;39.80;;;;;;4999899;28;20421;-73
2021/04/14 04:28:39;;;;;;;2.75;1.10;;;20.50;39.80;;;;;;4998889;28;21506;-73
2021/04/14 04:31:06;;;;;;;3.10;1.13;;;20.50;39.70;;;;;;4994579;28;20936;-71
2021/04/14 04:33:32;;;;;;;2.20;1.02;;;20.60;39.60;;;;;;5012865;28;20495;-73
2021/04/14 04:35:58;;;;;;;1.88;1.10;;;20.60;39.50;;;;;;5007285;28;20845;-70
2021/04/14 04:38:25;;;;;;;4.72;1.00;;;20.60;39.20;;;;;;4993928;28;20419;-71
2021/04/14 04:40:51;;;;;;;3.83;1.27;;;20.70;39.20;;;;;;5007913;28;20422;-71
2021/04/14 04:43:17;;;;;;;3.15;0.82;;;20.70;39.10;;;;;;5006324;28;20420;-73
2021/04/14 04:45:44;;;;;;;0.88;0.88;;;20.70;38.60;;;;;;5005159;28;20777;-72
2021/04/14 04:48:11;;;;;;;3.47;1.20;;;20.70;38.50;;;;;;5006155;28;20909;-73
2021/04/14 04:50:37;;;;;;;3.20;1.02;;;20.80;38.60;;;;;;5002000;28;20471;-72
2021/04/14 04:53:06;;;;;;;2.40;1.35;;;20.80;38.60;;;;;;4989045;28;20417;-72
2021/04/14 04:55:32;;;;;;;1.40;0.93;;;20.80;38.50;;;;;;4982530;28;20415;-72
2021/04/14 04:57:58;;;;;;;1.80;1.20;;;20.70;38.50;;;;;;5007550;28;20410;-72
2021/04/14 05:00:25;;;;;;;1.50;1.27;;;20.70;38.60;;;;;;4985515;28;20805;-72
2021/04/14 05:02:51;;;;;;;1.40;0.90;;;20.60;38.50;;;;;;5005804;28;20438;-72
2021/04/14 05:05:19;;;;;;;3.00;1.20;;;20.60;38.60;;;;;;5014571;28;20411;-72
2021/04/14 05:07:45;;;;;;;2.33;1.40;;;20.60;38.40;;;;;;5007264;28;20429;-72
2021/04/14 05:10:12;;;;;;;2.00;0.98;;;20.60;38.40;;;;;;5007059;28;20472;-72
2021/04/14 05:12:39;;;;;;;5.70;1.20;;;20.60;38.40;;;;;;5007478;28;20943;-72
2021/04/14 05:15:06;;;;;;;2.30;0.70;;;20.50;38.50;;;;;;5004391;28;20416;-72
2021/04/14 05:17:32;;;;;;;1.80;1.00;;;20.50;38.30;;;;;;5003303;28;20500;-72
2021/04/14 05:19:58;;;;;;;2.85;0.90;;;20.50;38.30;;;;;;5004123;28;20958;-72
2021/04/14 05:22:26;;;;;;;1.95;1.15;;;20.50;38.30;;;;;;5011553;28;20410;-72
2021/04/14 05:24:52;;;;;;;1.80;0.90;;;20.50;38.30;;;;;;5004851;28;20434;-72
2021/04/14 05:27:18;;;;;;;3.40;1.20;;;20.50;38.30;;;;;;5008682;28;20453;-72
2021/04/14 05:29:44;;;;;;;4.50;1.20;;;20.50;39.10;;;;;;5006703;28;20437;-73
2021/04/14 05:32:10;;;;;;;2.25;0.90;;;20.50;39.00;;;;;;4999869;28;21436;-71
2021/04/14 05:34:36;;;;;;;3.43;1.10;;;20.60;38.40;;;;;;4999852;28;20407;-72
2021/04/14 05:37:03;;;;;;;4.03;1.10;;;20.60;38.40;;;;;;5004290;28;20817;-72
2021/04/14 05:39:30;;;;;;;2.60;0.93;;;20.60;38.50;;;;;;5011493;28;20415;-73
2021/04/14 05:41:56;;;;;;;1.90;1.10;;;20.70;38.50;;;;;;5006372;28;20411;-72
2021/04/14 05:44:22;;;;;;;3.25;0.90;;;20.70;38.80;;;;;;5001126;28;20421;-71
2021/04/14 05:46:48;;;;;;;4.67;1.20;;;20.70;38.70;;;;;;4988281;28;20422;-72
2021/04/14 05:49:14;;;;;;;5.47;0.95;;;20.60;39.30;;;;;;5002715;28;20419;-72
2021/04/14 05:51:40;;;;;;;1.80;0.90;;;20.60;39.20;;;;;;4984896;28;20426;-72
2021/04/14 05:54:06;;;;;;;1.73;0.95;;;20.60;39.30;;;;;;4996972;28;20439;-72
2021/04/14 05:56:33;;;;;;;2.65;0.85;;;20.50;39.40;;;;;;4989096;28;20450;-73
2021/04/14 05:58:59;;;;;;;2.15;1.15;;;20.50;38.70;;;;;;5007669;28;20422;-72
2021/04/14 06:01:27;;;;;;;3.70;1.38;;;20.50;38.30;;;;;;5002426;28;20422;-72
2021/04/14 06:03:53;;;;;;;1.60;0.90;;;20.50;38.30;;;;;;4999559;28;20936;-72
2021/04/14 06:06:20;;;;;;;2.80;1.07;;;20.50;38.30;;;;;;4995842;28;20407;-72
2021/04/14 06:08:46;;;;;;;2.57;0.80;;;20.50;38.50;;;;;;4997102;28;20426;-72
2021/04/14 06:11:12;;;;;;;2.10;1.00;;;20.50;38.30;;;;;;5006620;28;20933;-72
2021/04/14 06:13:39;;;;;;;1.95;0.90;;;20.50;38.40;;;;;;5001069;28;20422;-72
2021/04/14 06:16:06;;;;;;;2.35;0.93;;;20.50;38.70;;;;;;5010004;28;20422;-73
2021/04/14 06:18:32;;;;;;;1.23;0.73;;;20.60;38.80;;;;;;5004050;28;20551;-72
2021/04/14 06:20:59;;;;;;;1.48;0.90;;;20.60;38.60;;;;;;5005867;28;20417;-73
2021/04/14 06:23:25;;;;;;;3.05;1.20;;;20.70;38.50;;;;;;5005828;28;20426;-72
2021/04/14 06:26:00;;;;;;;2.03;0.98;;;20.70;38.60;;;;;;5007846;28;20415;-72
2021/04/14 06:28:27;;;;;;;1.30;0.80;;;20.60;38.70;;;;;;4997167;28;20411;-73
2021/04/14 06:30:55;;;;;;;1.70;0.90;;;20.60;38.90;;;;;;5018594;28;20417;-71
2021/04/14 06:33:22;;;;;;;1.65;0.70;;;20.60;39.10;;;;;;5006326;28;20528;-72
2021/04/14 06:35:48;;;;;;;2.00;0.90;;;20.60;39.30;;;;;;5004741;28;20414;-72
2021/04/14 06:38:19;;;;;;;2.87;0.70;;;20.50;39.20;;;;;;5005985;28;20427;-73
2021/04/14 06:41:06;;;;;;;1.70;0.80;;;20.50;39.20;;;;;;5005563;28;20410;-73
2021/04/14 06:43:39;;;;;;;1.48;0.90;;;20.50;39.30;;;;;;5004025;28;21065;-72
2021/04/14 06:46:08;;;;;;;1.47;1.00;;;20.50;39.40;;;;;;5005703;28;20435;-72
2021/04/14 06:48:37;;;;;;;1.20;1.00;;;20.50;39.50;;;;;;5006022;28;20428;-72
2021/04/14 06:51:05;;;;;;;1.10;0.80;;;20.50;39.80;;;;;;5007148;28;20433;-72
2021/04/14 06:53:36;;;;;;;2.35;0.80;;;20.50;39.70;;;;;;5012150;28;20422;-72
2021/04/14 06:56:03;;;;;;;2.20;1.00;;;20.50;39.70;;;;;;5011435;28;20422;-72
2021/04/14 06:58:34;;;;;;;1.90;1.00;;;20.50;39.60;;;;;;4995703;28;20427;-72
2021/04/14 07:01:02;;;;;;;3.80;1.10;;;20.50;40.40;;;;;;5014486;28;20427;-72
2021/04/14 07:03:30;;;;;;;2.00;0.90;;;20.60;39.70;;;;;;5009913;28;20427;-72
2021/04/14 07:05:57;;;;;;;1.45;0.90;;;20.60;39.60;;;;;;5010477;28;21434;-72
2021/04/14 07:08:27;;;;;;;3.17;1.00;;;20.60;39.70;;;;;;5009252;28;20545;-72
2021/04/14 07:10:56;;;;;;;1.20;0.70;;;20.50;39.70;;;;;;5009319;28;20423;-72
2021/04/14 07:13:22;;;;;;;2.97;0.75;;;20.50;39.70;;;;;;5009623;28;20498;-72
2021/04/14 07:15:49;;;;;;;4.40;1.10;;;20.50;39.90;;;;;;5007772;28;20416;-72
2021/04/14 07:18:24;;;;;;;1.65;0.80;;;20.50;40.70;;;;;;5008847;28;20459;-72
2021/04/14 07:20:54;;;;;;;1.77;0.77;;;20.50;39.80;;;;;;5007803;28;20464;-73
2021/04/14 07:23:39;;;;;;;1.30;0.80;;;20.50;39.80;;;;;;4997823;28;20407;-73
2021/04/14 07:26:09;;;;;;;3.00;0.70;;;20.60;40.00;;;;;;4993158;28;20485;-73
2021/04/14 07:29:05;;;;;;;1.63;0.80;;;20.50;39.90;;;;;;5015729;28;20416;-72
2021/04/14 07:31:34;;;;;;;2.30;0.90;;;20.60;39.90;;;;;;4996622;28;20475;-72
2021/04/14 07:34:07;;;;;;;1.60;0.70;;;20.60;39.90;;;;;;4987845;28;20832;-72
2021/04/14 07:36:40;;;;;;;1.40;0.80;;;20.60;39.80;;;;;;5007712;28;20480;-72
2021/04/14 07:39:11;;;;;;;2.22;0.70;;;20.50;39.80;;;;;;5008792;28;20471;-72
2021/04/14 07:41:42;;;;;;;1.70;1.05;;;20.50;40.00;;;;;;4996432;28;20470;-72
2021/04/14 07:44:10;;;;;;;0.95;0.70;;;20.50;40.10;;;;;;5014033;28;20420;-72
2021/04/14 07:46:37;;;;;;;1.30;0.70;;;20.50;40.20;;;;;;5003787;28;20515;-72
2021/04/14 07:49:04;;;;;;;1.00;0.70;;;20.40;40.20;;;;;;5006930;28;21626;-72
2021/04/14 07:51:30;;;;;;;1.20;0.80;;;20.40;40.30;;;;;;5006789;28;20439;-73
2021/04/14 07:54:00;;;;;;;1.37;0.80;;;20.40;41.10;;;;;;4997540;28;20819;-72
2021/04/14 07:56:26;;;;;;;2.00;0.70;;;20.40;40.40;;;;;;5000926;28;20446;-72
2021/04/14 07:58:53;;;;;;;1.70;0.67;;;20.30;40.80;;;;;;4994168;28;20977;-73
2021/04/14 08:01:21;;;;;;;3.40;0.90;;;20.30;41.00;;;;;;5016981;28;20418;-72
2021/04/14 08:03:47;;;;;;;4.60;1.50;;;20.30;42.60;;;;;;5002734;28;20428;-72
2021/04/14 08:06:16;;;;;;;7.93;1.20;;;20.30;44.20;;;;;;5009099;28;20406;-72
2021/04/14 08:08:42;;;;;;;13.00;1.60;;;20.30;43.70;;;;;;5008471;28;20515;-72
2021/04/14 08:11:10;;;;;;;5.68;0.90;;;20.30;43.30;;;;;;5008388;28;20423;-72
2021/04/14 08:13:40;;;;;;;2.88;0.80;;;20.30;43.30;;;;;;5009367;28;21583;-71
2021/04/14 08:16:17;;;;;;;1.50;0.80;;;20.30;43.50;;;;;;5008489;28;20772;-72
2021/04/14 08:18:54;;;;;;;4.78;0.93;;;20.40;43.40;;;;;;5006671;28;20428;-72
2021/04/14 08:21:32;;;;;;;6.05;1.02;;;20.40;43.80;;;;;;5005498;28;20404;-75
2021/04/14 08:24:00;;;;;;;1.50;0.60;;;20.40;43.80;;;;;;5008724;28;20470;-71
2021/04/14 08:26:27;;;;;;;2.85;0.60;;;20.40;45.90;;;;;;5009045;28;20837;-73
2021/04/14 08:28:55;;;;;;;2.40;0.82;;;20.40;45.20;;;;;;5008078;28;20418;-72
2021/04/14 08:31:34;;;;;;;2.25;0.70;;;20.40;45.90;;;;;;5008178;28;20453;-72
2021/04/14 08:34:08;;;;;;;1.95;0.70;;;20.50;47.10;;;;;;5005367;28;20881;-72
2021/04/14 08:36:35;;;;;;;1.20;0.70;;;20.50;47.00;;;;;;5004913;28;20412;-72
2021/04/14 08:39:10;;;;;;;1.60;1.00;;;20.50;47.00;;;;;;5007999;28;20425;-72
2021/04/14 08:41:37;;;;;;;1.98;0.70;;;20.50;47.10;;;;;;5006783;28;20409;-72
2021/04/14 08:44:08;;;;;;;1.57;0.70;;;20.60;47.10;;;;;;5006158;28;20420;-72
2021/04/14 08:46:37;;;;;;;1.30;0.70;;;20.70;47.20;;;;;;5007550;28;20413;-72
2021/04/14 08:49:04;;;;;;;2.90;0.70;;;20.70;47.10;;;;;;5007367;28;20446;-73
2021/04/14 08:51:34;;;;;;;1.80;0.70;;;20.80;47.00;;;;;;5007953;28;20416;-72
2021/04/14 08:54:00;;;;;;;1.70;0.90;;;20.80;47.30;;;;;;5011114;28;20975;-72
2021/04/14 08:56:26;;;;;;;2.20;0.60;;;20.70;46.60;;;;;;5008084;28;20907;-72
2021/04/14 08:58:54;;;;;;;2.15;0.70;;;20.80;46.70;;;;;;4995780;28;20911;-72
2021/04/14 09:01:20;;;;;;;1.80;0.73;;;20.80;46.80;;;;;;5008556;28;20525;-72
2021/04/14 09:03:47;;;;;;;1.10;0.80;;;20.70;46.20;;;;;;5002360;28;20913;-72
2021/04/14 09:06:14;;;;;;;1.88;0.73;;;20.70;46.20;;;;;;5019164;28;20417;-71
2021/04/14 09:08:43;;;;;;;1.70;1.00;;;20.70;46.40;;;;;;5002592;28;20424;-72
2021/04/14 09:11:17;;;;;;;1.20;0.80;;;20.70;46.60;;;;;;5006479;28;20420;-72
2021/04/14 09:13:49;;;;;;;2.90;0.80;;;20.70;46.80;;;;;;4998072;28;20481;-72
2021/04/14 09:16:27;;;;;;;3.00;1.00;;;20.70;47.50;;;;;;4998745;28;20889;-72
2021/04/14 09:18:53;;;;;;;2.13;0.90;;;20.70;47.50;;;;;;5015521;28;20422;-71
2021/04/14 09:21:20;;;;;;;2.10;0.80;;;20.70;47.50;;;;;;5005904;28;20423;-71
2021/04/14 09:23:53;;;;;;;1.60;0.90;;;20.70;48.80;;;;;;5007229;28;20461;-73
2021/04/14 09:26:24;;;;;;;2.63;0.85;;;20.70;48.20;;;;;;5007216;28;20494;-71
2021/04/14 09:28:51;;;;;;;1.38;0.90;;;20.70;48.40;;;;;;5006086;28;20431;-72
2021/04/14 09:31:39;;;;;;;2.95;0.80;;;20.70;48.20;;;;;;5007401;28;20411;-72
2021/04/14 09:34:09;;;;;;;2.05;0.70;;;20.70;48.20;;;;;;5007084;28;20788;-72
2021/04/14 09:36:43;;;;;;;1.20;0.80;;;20.70;48.10;;;;;;5003803;28;20413;-71
2021/04/14 09:39:11;;;;;;;1.33;0.80;;;20.70;48.40;;;;;;5006847;28;20824;-72
2021/04/14 09:41:37;;;;;;;2.42;0.80;;;20.60;48.60;;;;;;5007097;28;20499;-71
2021/04/14 09:44:17;;;;;;;0.88;0.70;;;20.60;48.40;;;;;;5011278;28;20422;-71
2021/04/14 09:46:54;;;;;;;1.73;1.42;;;20.60;48.20;;;;;;4986954;28;20405;-72
2021/04/14 09:49:33;;;;;;;1.40;1.30;;;20.60;48.80;;;;;;4997054;28;20402;-73
2021/04/14 09:52:00;;;;;;;2.50;1.30;;;20.70;47.20;;;;;;5003933;28;20440;-72
2021/04/14 09:54:29;;;;;;;2.00;1.00;;;20.70;47.20;;;;;;4976120;28;21552;-73
2021/04/14 09:56:56;;;;;;;2.25;1.08;;;20.70;46.70;;;;;;5005808;28;20432;-71
2021/04/14 09:59:25;;;;;;;2.50;1.40;;;20.80;46.80;;;;;;5020590;28;20411;-73
2021/04/14 10:01:51;;;;;;;1.95;1.30;;;20.80;46.60;;;;;;5020619;28;20416;-73
2021/04/14 10:04:21;;;;;;;1.70;0.90;;;20.80;47.30;;;;;;5016068;28;20428;-73
2021/04/14 10:06:47;;;;;;;1.13;1.02;;;20.80;47.50;;;;;;5028118;28;20447;-71
2021/04/14 10:09:21;;;;;;;1.27;0.90;;;20.70;47.90;;;;;;4987917;28;20417;-72
2021/04/14 10:11:47;;;;;;;2.10;0.85;;;20.70;47.40;;;;;;5005259;28;20453;-72
2021/04/14 10:14:14;;;;;;;2.22;1.10;;;20.70;47.60;;;;;;5010030;28;20896;-73
2021/04/14 10:16:40;;;;;;;0.80;0.70;;;20.60;46.70;;;;;;4985265;28;20417;-72
2021/04/14 10:19:08;;;;;;;1.70;0.70;;;20.60;47.50;;;;;;4997454;28;20499;-71
2021/04/14 10:21:36;;;;;;;1.80;0.80;;;20.60;47.80;;;;;;4989926;28;20791;-72
2021/04/14 10:24:06;;;;;;;1.60;0.80;;;20.60;47.70;;;;;;5018448;28;20421;-73
2021/04/14 10:26:33;;;;;;;2.00;0.80;;;20.60;48.00;;;;;;5007314;28;20432;-71
2021/04/14 10:29:00;;;;;;;1.88;0.75;;;20.60;47.90;;;;;;5006009;28;20412;-72
2021/04/14 10:31:27;;;;;;;1.50;0.90;;;20.60;47.20;;;;;;5006793;28;20486;-72
2021/04/14 10:33:53;;;;;;;1.80;0.80;;;20.70;47.30;;;;;;5005028;28;20399;-72
2021/04/14 10:36:23;;;;;;;1.50;0.80;;;20.70;47.60;;;;;;5004070;28;20415;-73
2021/04/14 10:38:50;;;;;;;1.42;1.00;;;20.70;47.20;;;;;;4997352;28;21066;-74
2021/04/14 10:41:19;;;;;;;1.50;0.90;;;20.70;46.50;;;;;;5017986;28;20422;-72
2021/04/14 10:43:46;;;;;;;3.80;1.10;;;20.80;48.40;;;;;;5009866;28;20418;-72
2021/04/14 10:46:13;;;;;;;2.92;0.90;;;20.80;47.80;;;;;;5010383;28;20418;-71
2021/04/14 10:48:41;;;;;;;3.35;1.20;;;20.70;48.70;;;;;;5007123;28;20421;-74
2021/04/14 10:51:10;;;;;;;2.47;0.90;;;20.70;48.50;;;;;;5004716;28;20932;-74
2021/04/14 10:53:38;;;;;;;2.40;0.80;;;20.70;49.90;;;;;;4998285;28;20410;-74
2021/04/14 10:56:12;;;;;;;1.98;0.73;;;20.70;49.30;;;;;;5011951;28;20760;-74
2021/04/14 10:58:38;;;;;;;2.70;0.90;;;20.60;48.70;;;;;;5001783;28;20398;-74
2021/04/14 11:01:09;;;;;;;2.30;1.40;;;20.60;49.80;;;;;;5010321;28;20784;-74
2021/04/14 11:03:35;;;;;;;1.67;1.08;;;20.50;50.40;;;;;;5004220;28;20413;-74
2021/04/14 11:06:03;;;;;;;2.03;1.00;;;20.50;51.20;;;;;;5006797;28;20421;-74
2021/04/14 11:08:29;;;;;;;1.92;0.80;;;20.50;50.30;;;;;;4996028;28;21562;-73
2021/04/14 11:10:55;;;;;;;2.80;1.00;;;20.50;49.00;;;;;;5007479;28;20413;-74
2021/04/14 11:13:24;;;;;;;2.20;1.00;;;20.50;48.80;;;;;;5012144;28;20423;-74
2021/04/14 11:15:51;;;;;;;3.70;0.88;;;20.40;49.10;;;;;;5005473;28;20779;-74
2021/04/14 11:18:18;;;;;;;3.22;1.00;;;20.50;50.00;;;;;;5007461;28;20758;-74
2021/04/14 11:20:48;;;;;;;2.60;0.80;;;20.50;49.80;;;;;;5007248;28;20423;-74
2021/04/14 11:23:20;;;;;;;1.90;0.80;;;20.50;49.30;;;;;;4986019;28;20415;-74
2021/04/14 11:25:46;;;;;;;0.85;0.77;;;20.50;49.20;;;;;;5000791;28;20415;-74
2021/04/14 11:28:13;;;;;;;2.20;0.80;;;20.50;48.90;;;;;;5007590;28;21479;-73
2021/04/14 11:30:49;;;;;;;2.97;0.80;;;20.50;49.30;;;;;;5006472;28;20467;-73
2021/04/14 11:33:16;;;;;;;2.00;0.70;;;20.50;48.80;;;;;;5000691;28;20438;-74
2021/04/14 11:35:43;;;;;;;0.73;0.73;;;20.50;49.00;;;;;;5008408;28;20412;-73
2021/04/14 11:38:28;;;;;;;2.60;0.80;;;20.40;49.80;;;;;;5009493;28;20492;-74
2021/04/14 11:40:54;;;;;;;1.73;0.80;;;20.40;49.70;;;;;;5004560;28;20418;-74
2021/04/14 11:43:26;;;;;;;2.78;1.00;;;20.40;50.10;;;;;;5010196;28;20970;-74
2021/04/14 11:45:59;;;;;;;1.10;0.82;;;20.40;50.20;;;;;;5008457;28;20411;-74
2021/04/14 11:48:39;;;;;;;2.50;0.70;;;20.40;49.70;;;;;;5006907;28;20421;-74
2021/04/14 11:51:24;;;;;;;1.33;0.80;;;20.30;50.90;;;;;;5004166;28;20427;-74
2021/04/14 11:53:52;;;;;;;0.90;0.80;;;20.30;49.40;;;;;;4995914;28;20404;-74
2021/04/14 11:56:29;;;;;;;0.70;0.70;;;20.30;50.70;;;;;;4992964;28;20945;-73
2021/04/14 11:58:56;;;;;;;0.80;0.77;;;20.30;51.10;;;;;;5008782;28;20526;-73
2021/04/14 12:01:23;;;;;;;1.70;0.70;;;20.30;51.30;;;;;;5003949;28;20835;-75
2021/04/14 12:03:50;;;;;;;2.50;0.70;;;20.30;49.10;;;;;;5005664;28;21083;-73
2021/04/14 12:06:16;;;;;;;3.20;0.70;;;20.30;49.60;;;;;;5008657;28;20487;-73
2021/04/14 12:08:42;;;;;;;1.60;0.80;;;20.30;49.60;;;;;;5006118;28;20416;-73
2021/04/14 12:11:15;;;;;;;2.45;0.90;;;20.30;50.40;;;;;;5008655;28;20479;-73
2021/04/14 12:13:41;;;;;;;1.20;0.52;;;20.30;49.70;;;;;;5008095;28;20427;-72
2021/04/14 12:16:07;;;;;;;1.00;0.70;;;20.40;49.60;;;;;;5008441;28;20426;-73
2021/04/14 12:18:34;;;;;;;2.85;0.60;;;20.40;50.20;;;;;;5008515;28;20531;-73
2021/04/14 12:21:00;;;;;;;1.50;0.70;;;20.40;50.10;;;;;;5007310;28;20420;-73
2021/04/14 12:23:27;;;;;;;0.95;0.60;;;20.40;49.50;;;;;;5008201;28;20419;-73
2021/04/14 12:25:53;;;;;;;0.60;0.52;;;20.40;50.90;;;;;;5015845;28;20404;-74
2021/04/14 12:28:19;;;;;;;0.93;0.60;;;20.40;50.40;;;;;;5041337;28;20396;-75
2021/04/14 12:30:45;;;;;;;1.88;0.80;;;20.40;49.50;;;;;;5040007;28;20428;-73
2021/04/14 12:33:11;;;;;;;1.65;0.80;;;20.40;50.40;;;;;;5029893;28;20424;-75
2021/04/14 12:35:38;;;;;;;2.20;0.80;;;20.40;50.60;;;;;;5009889;28;20408;-72
2021/04/14 12:38:06;;;;;;;2.23;0.60;;;20.40;50.70;;;;;;5000446;28;20417;-73
2021/04/14 12:40:32;;;;;;;1.75;0.80;;;20.40;49.50;;;;;;5012921;28;20411;-72
2021/04/14 12:42:59;;;;;;;1.20;0.68;;;20.40;50.50;;;;;;5001309;28;20479;-72
2021/04/14 12:45:29;;;;;;;1.30;0.60;;;20.40;50.30;;;;;;4998376;28;20415;-73
2021/04/14 12:47:55;;;;;;;1.20;0.70;;;20.50;50.60;;;;;;4997221;28;20424;-73
2021/04/14 12:50:21;;;;;;;1.42;0.70;;;20.50;49.90;;;;;;4997991;28;20420;-73
2021/04/14 12:52:51;;;;;;;0.70;0.70;;;20.50;50.70;;;;;;4998119;28;20409;-74